This is the latest recevied weather packets stored in our database for station/object KM4NDI. If no packets are shown the sender has not sent any weather packets the latest 10 day(s).
| Time | Temp. | Humidity | Pressure | Rain* | Wind** | Luminosity | Snow |
|---|---|---|---|---|---|---|---|
| 1777697127 | - | - | 1015.6 hPa | 0 mm | - | - | - |
| 1777695319 | - | - | 1016 hPa | 0 mm | - | - | - |
| 1777693528 | - | - | 1016 hPa | 0 mm | - | - | - |
| 1777690525 | 16.11° C | 99% | 1016.7 hPa | 0 mm | - | - | - |
| 1777689319 | 16.11° C | 99% | 1016.7 hPa | 0 mm | - | - | - |
| 1777686925 | 16.11° C | 99% | 1016.5 hPa | 0 mm | - | - | - |
| 1777683923 | 16.67° C | 99% | 1015.9 hPa | 0 mm | - | - | - |
| 1777682729 | 16.67° C | 99% | 1015.7 hPa | 0 mm | - | - | - |
| 1777681517 | 17.22° C | 99% | 1015.6 hPa | 0 mm | - | - | - |
| 1777678515 | 18.33° C | 99% | 1015.6 hPa | 0 mm | - | - | - |
| 1777673722 | 19.44° C | 84% | 1015.3 hPa | 0 mm | - | - | - |
| 1777672528 | 20° C | 81% | 1015 hPa | 0 mm | - | - | - |
| 1777670720 | 20.56° C | 75% | 1014.6 hPa | 0 mm | - | - | - |
| 1777670123 | 21.11° C | 76% | 1014.7 hPa | 0 mm | - | - | - |
| 1777665323 | 23.89° C | 60% | 1016.7 hPa | 0 mm | - | - | - |
| 1777660538 | 25° C | 59% | 1016.7 hPa | 0 mm | - | - | - |
| 1777657515 | 23.89° C | 62% | 1017.5 hPa | 0 mm | - | - | - |
| 1777655724 | 20.56° C | 77% | 1017.9 hPa | 0 mm | - | - | - |
| 1777652119 | 18.33° C | 89% | 1017.9 hPa | 0 mm | - | - | - |
| 1777646717 | 16.67° C | 99% | 1017.4 hPa | 0 mm | - | - | - |
| 1777623926 | - | - | 1015.6 hPa | 0 mm | - | - | - |
| 1777620327 | - | - | 1015.9 hPa | 0 mm | - | - | - |
| 1777613128 | 16.11° C | 99% | 1015.9 hPa | 0 mm | - | - | - |
| 1777611916 | 16.11° C | 99% | 1016 hPa | 0 mm | - | - | - |
| 1777609529 | 16.11° C | 99% | 1016.3 hPa | 0 mm | - | - | - |
* Rain latest hour (hover to see other rain measurements)
** Current wind speed in m/s (hover to see current wind gust speed)